createdAt,value
2023-01-26T00:00:07.264Z,-1.49
2023-01-26T00:01:07.099Z,-1.53
2023-01-26T00:02:07.235Z,-1.53
2023-01-26T00:03:07.312Z,-1.51
2023-01-26T00:04:07.143Z,-1.53
2023-01-26T00:05:07.279Z,-1.56
2023-01-26T00:06:07.259Z,-1.59
2023-01-26T00:07:07.320Z,-1.59
2023-01-26T00:08:07.215Z,-1.62
2023-01-26T00:09:07.154Z,-1.60
2023-01-26T00:10:07.204Z,-1.64
2023-01-26T00:11:07.316Z,-1.64
2023-01-26T00:12:07.151Z,-1.63
2023-01-26T00:13:07.147Z,-1.63
2023-01-26T00:14:07.288Z,-1.63
2023-01-26T00:15:07.147Z,-1.63
2023-01-26T00:16:07.195Z,-1.60
2023-01-26T00:17:07.073Z,-1.59
2023-01-26T00:18:07.088Z,-1.59
2023-01-26T00:19:07.088Z,-1.57
2023-01-26T00:20:07.202Z,-1.57
2023-01-26T00:21:07.097Z,-1.54
2023-01-26T00:22:07.081Z,-1.51
2023-01-26T00:23:07.061Z,-1.48
2023-01-26T00:24:07.220Z,-1.51
2023-01-26T00:25:07.050Z,-1.48
2023-01-26T00:26:07.026Z,-1.49
2023-01-26T00:27:07.028Z,-1.49
2023-01-26T00:28:07.148Z,-1.48
2023-01-26T00:29:07.033Z,-1.46
2023-01-26T00:30:07.015Z,-1.45
2023-01-26T00:31:07.087Z,-1.45
2023-01-26T00:32:07.071Z,-1.42
2023-01-26T00:33:06.929Z,-1.46
2023-01-26T00:34:06.933Z,-1.48
2023-01-26T00:35:06.968Z,-1.43
2023-01-26T00:36:07.080Z,-1.48
2023-01-26T00:37:06.902Z,-1.48
2023-01-26T00:38:06.898Z,-1.46
2023-01-26T00:39:06.894Z,-1.48
2023-01-26T00:40:06.901Z,-1.49
2023-01-26T00:41:06.887Z,-1.54
2023-01-26T00:42:06.962Z,-1.57
2023-01-26T00:43:06.863Z,-1.57
2023-01-26T00:44:06.855Z,-1.57
2023-01-26T00:45:06.862Z,-1.60
2023-01-26T00:46:06.838Z,-1.63
2023-01-26T00:47:06.908Z,-1.66
2023-01-26T00:48:06.818Z,-1.70
2023-01-26T00:49:06.795Z,-1.74
2023-01-26T00:50:06.796Z,-1.74
2023-01-26T00:51:06.813Z,-1.77
2023-01-26T00:52:06.896Z,-1.77
2023-01-26T00:53:06.820Z,-1.78
2023-01-26T00:54:06.818Z,-1.77
2023-01-26T00:55:06.903Z,-1.77
2023-01-26T00:56:06.747Z,-1.77
2023-01-26T00:57:06.752Z,-1.77
2023-01-26T00:58:06.845Z,-1.77
2023-01-26T00:59:06.768Z,-1.74
2023-01-26T01:00:06.793Z,-1.75
2023-01-26T01:01:06.796Z,-1.72
2023-01-26T01:02:06.867Z,-1.72
2023-01-26T01:03:06.738Z,-1.72
2023-01-26T01:04:06.724Z,-1.72
2023-01-26T01:05:06.470Z,-1.69
2023-01-26T01:06:06.760Z,-1.69
2023-01-26T01:07:06.684Z,-1.69
2023-01-26T01:08:06.721Z,-1.66
2023-01-26T01:09:06.596Z,-1.66
2023-01-26T01:10:06.765Z,-1.66
2023-01-26T01:11:06.635Z,-1.64
2023-01-26T01:12:06.666Z,-1.66
2023-01-26T01:13:06.671Z,-1.64
2023-01-26T01:14:06.561Z,-1.64
2023-01-26T01:15:06.561Z,-1.64
2023-01-26T01:16:06.612Z,-1.63
2023-01-26T01:17:06.641Z,-1.66
2023-01-26T01:18:06.618Z,-1.62
2023-01-26T01:19:06.594Z,-1.63
2023-01-26T01:20:06.570Z,-1.62
2023-01-26T01:21:06.561Z,-1.63
2023-01-26T01:22:06.542Z,-1.60
2023-01-26T01:23:06.533Z,-1.63
2023-01-26T01:24:06.589Z,-1.64
2023-01-26T01:25:06.502Z,-1.67
2023-01-26T01:26:06.475Z,-1.64
2023-01-26T01:27:06.458Z,-1.67
2023-01-26T01:28:06.440Z,-1.64
2023-01-26T01:29:06.573Z,-1.64
2023-01-26T01:30:06.384Z,-1.64
2023-01-26T01:31:06.476Z,-1.62
2023-01-26T01:32:06.487Z,-1.62
2023-01-26T01:33:06.385Z,-1.59
2023-01-26T01:34:06.525Z,-1.59
2023-01-26T01:35:06.371Z,-1.54
2023-01-26T01:36:06.383Z,-1.54
2023-01-26T01:37:06.400Z,-1.53
2023-01-26T01:38:06.425Z,-1.54
2023-01-26T01:39:06.452Z,-1.49
2023-01-26T01:40:06.348Z,-1.51
2023-01-26T01:41:06.479Z,-1.49
2023-01-26T01:42:06.474Z,-1.46
2023-01-26T01:43:06.330Z,-1.45
2023-01-26T01:44:06.319Z,-1.45
2023-01-26T01:45:06.300Z,-1.43
2023-01-26T01:46:06.109Z,-1.45
2023-01-26T01:47:06.407Z,-1.43
2023-01-26T01:48:06.285Z,-1.46
2023-01-26T01:49:06.262Z,-1.46
2023-01-26T01:50:06.259Z,-1.48
2023-01-26T01:51:06.252Z,-1.43
2023-01-26T01:52:06.373Z,-1.45
2023-01-26T01:53:06.236Z,-1.46
2023-01-26T01:54:06.223Z,-1.46
2023-01-26T01:55:06.205Z,-1.48
2023-01-26T01:56:06.183Z,-1.49
2023-01-26T01:57:06.284Z,-1.51
2023-01-26T01:58:06.177Z,-1.49
2023-01-26T01:59:06.184Z,-1.51
2023-01-26T02:00:06.199Z,-1.53
2023-01-26T02:01:06.170Z,-1.51
2023-01-26T02:02:06.202Z,-1.54
2023-01-26T02:03:06.251Z,-1.57
2023-01-26T02:04:06.135Z,-1.60
2023-01-26T02:05:06.181Z,-1.59
2023-01-26T02:06:06.161Z,-1.59
2023-01-26T02:07:06.188Z,-1.56
2023-01-26T02:08:06.113Z,-1.60
2023-01-26T02:09:06.198Z,-1.64
2023-01-26T02:10:06.211Z,-1.64
2023-01-26T02:11:06.131Z,-1.72
2023-01-26T02:12:06.062Z,-1.78
2023-01-26T02:13:06.076Z,-1.80
2023-01-26T02:14:06.161Z,-1.80
2023-01-26T02:15:06.086Z,-1.75
2023-01-26T02:16:06.120Z,-1.75
2023-01-26T02:17:05.995Z,-1.75
2023-01-26T02:18:06.014Z,-1.74
2023-01-26T02:19:05.987Z,-1.67
2023-01-26T02:20:06.056Z,-1.67
2023-01-26T02:21:05.970Z,-1.66
2023-01-26T02:22:05.975Z,-1.64
2023-01-26T02:23:05.966Z,-1.62
2023-01-26T02:24:05.991Z,-1.62
2023-01-26T02:25:05.742Z,-1.60
2023-01-26T02:26:05.773Z,-1.57
2023-01-26T02:27:05.981Z,-1.54
2023-01-26T02:28:05.916Z,-1.54
2023-01-26T02:29:05.715Z,-1.53
2023-01-26T02:30:05.924Z,-1.53
2023-01-26T02:31:06.269Z,-1.49
2023-01-26T02:32:05.894Z,-1.48
2023-01-26T02:33:05.911Z,-1.46
2023-01-26T02:34:05.911Z,-1.48
2023-01-26T02:35:05.838Z,-1.45
2023-01-26T02:36:05.778Z,-1.46
2023-01-26T02:37:05.942Z,-1.48
2023-01-26T02:38:05.808Z,-1.49
2023-01-26T02:39:05.823Z,-1.48
2023-01-26T02:40:05.835Z,-1.51
2023-01-26T02:41:05.857Z,-1.49
2023-01-26T02:42:05.870Z,-1.46
2023-01-26T02:43:05.573Z,-1.46
2023-01-26T02:44:05.732Z,-1.45
2023-01-26T02:45:05.727Z,-1.42
2023-01-26T02:46:05.775Z,-1.39
2023-01-26T02:47:05.715Z,-1.38
2023-01-26T02:48:05.707Z,-1.36
2023-01-26T02:49:05.706Z,-1.35
2023-01-26T02:50:05.732Z,-1.36
2023-01-26T02:51:05.738Z,-1.33
2023-01-26T02:52:05.654Z,-1.30
2023-01-26T02:53:05.666Z,-1.31
2023-01-26T02:54:05.673Z,-1.30
2023-01-26T02:55:05.667Z,-1.27
2023-01-26T02:56:05.690Z,-1.30
2023-01-26T02:57:05.691Z,-1.28
2023-01-26T02:58:05.700Z,-1.25
2023-01-26T02:59:05.637Z,-1.25
2023-01-26T03:00:05.558Z,-1.24
2023-01-26T03:01:05.651Z,-1.24
2023-01-26T03:02:05.657Z,-1.24
2023-01-26T03:03:05.710Z,-1.23
2023-01-26T03:04:05.633Z,-1.23
2023-01-26T03:05:05.576Z,-1.23
2023-01-26T03:06:05.672Z,-1.20
2023-01-26T03:07:05.614Z,-1.18
2023-01-26T03:08:05.528Z,-1.21
2023-01-26T03:09:05.598Z,-1.24
2023-01-26T03:10:05.501Z,-1.20
2023-01-26T03:11:05.652Z,-1.20
2023-01-26T03:12:05.638Z,-1.20
2023-01-26T03:13:05.550Z,-1.18
2023-01-26T03:14:05.548Z,-1.20
2023-01-26T03:15:05.541Z,-1.20
2023-01-26T03:16:05.504Z,-1.17
2023-01-26T03:17:05.453Z,-1.18
2023-01-26T03:18:05.453Z,-1.17
2023-01-26T03:19:05.550Z,-1.17
2023-01-26T03:20:05.558Z,-1.15
2023-01-26T03:21:05.501Z,-1.13
2023-01-26T03:22:05.447Z,-1.10
2023-01-26T03:23:05.392Z,-1.09
2023-01-26T03:24:05.471Z,-1.10
2023-01-26T03:25:05.431Z,-1.12
2023-01-26T03:26:05.452Z,-1.12
2023-01-26T03:27:05.377Z,-1.09
2023-01-26T03:28:05.376Z,-1.07
2023-01-26T03:29:05.391Z,-1.03
2023-01-26T03:30:05.383Z,-1.07
2023-01-26T03:31:05.413Z,-1.05
2023-01-26T03:32:05.409Z,-1.05
2023-01-26T03:33:05.345Z,-1.05
2023-01-26T03:34:05.217Z,-1.05
2023-01-26T03:35:05.233Z,-1.06
2023-01-26T03:36:05.418Z,-1.06
2023-01-26T03:37:05.300Z,-1.06
2023-01-26T03:38:05.318Z,-1.06
2023-01-26T03:39:05.233Z,-1.06
2023-01-26T03:40:05.264Z,-1.06
2023-01-26T03:41:05.215Z,-1.06
2023-01-26T03:42:05.322Z,-1.07
2023-01-26T03:43:05.209Z,-1.09
2023-01-26T03:44:05.253Z,-1.09
2023-01-26T03:45:05.193Z,-1.09
2023-01-26T03:46:05.215Z,-1.10
2023-01-26T03:47:05.245Z,-1.10
2023-01-26T03:48:05.277Z,-1.12
2023-01-26T03:49:05.219Z,-1.12
2023-01-26T03:50:05.243Z,-1.15
2023-01-26T03:51:05.188Z,-1.15
2023-01-26T03:52:05.184Z,-1.15
2023-01-26T03:53:05.273Z,-1.17
2023-01-26T03:54:05.211Z,-1.20
2023-01-26T03:55:05.132Z,-1.20
2023-01-26T03:56:05.144Z,-1.20
2023-01-26T03:57:05.146Z,-1.23
2023-01-26T03:58:05.131Z,-1.27
2023-01-26T03:59:05.200Z,-1.27
2023-01-26T04:00:05.106Z,-1.27
2023-01-26T04:01:05.101Z,-1.25
2023-01-26T04:02:05.170Z,-1.25
2023-01-26T04:03:05.068Z,-1.27
2023-01-26T04:04:04.850Z,-1.28
2023-01-26T04:05:05.031Z,-1.27
2023-01-26T04:06:15.495Z,-1.24
2023-01-26T04:07:05.001Z,-1.25
2023-01-26T04:08:05.059Z,-1.24
2023-01-26T04:09:05.054Z,-1.28
2023-01-26T04:10:05.054Z,-1.25
2023-01-26T04:11:04.975Z,-1.23
2023-01-26T04:12:04.990Z,-1.24
2023-01-26T04:13:05.008Z,-1.18
2023-01-26T04:14:04.939Z,-1.18
2023-01-26T04:15:04.947Z,-1.20
2023-01-26T04:16:05.026Z,-1.15
2023-01-26T04:17:04.732Z,-1.17
2023-01-26T04:18:04.897Z,-1.15
2023-01-26T04:19:04.897Z,-1.13
2023-01-26T04:20:04.989Z,-1.12
2023-01-26T04:21:04.892Z,-1.10
2023-01-26T04:22:04.906Z,-1.10
2023-01-26T04:23:04.848Z,-1.12
2023-01-26T04:24:04.904Z,-1.10
2023-01-26T04:25:04.888Z,-1.09
2023-01-26T04:26:04.895Z,-1.07
2023-01-26T04:27:04.823Z,-1.09
2023-01-26T04:28:04.843Z,-1.12
2023-01-26T04:29:04.635Z,-1.13
2023-01-26T04:30:04.808Z,-1.13
2023-01-26T04:31:04.709Z,-1.18
2023-01-26T04:32:04.620Z,-1.23
2023-01-26T04:33:04.897Z,-1.20
2023-01-26T04:34:04.580Z,-1.20
2023-01-26T04:35:04.593Z,-1.21
2023-01-26T04:36:04.754Z,-1.21
2023-01-26T04:37:04.594Z,-1.20
2023-01-26T04:38:04.548Z,-1.21
2023-01-26T04:39:04.594Z,-1.18
2023-01-26T04:40:04.599Z,-1.23
2023-01-26T04:41:04.633Z,-1.20
2023-01-26T04:42:04.669Z,-1.23
2023-01-26T04:43:04.536Z,-1.17
2023-01-26T04:44:04.590Z,-1.15
2023-01-26T04:45:04.547Z,-1.13
2023-01-26T04:46:04.700Z,-1.17
2023-01-26T04:47:04.734Z,-1.15
2023-01-26T04:48:04.672Z,-1.13
2023-01-26T04:49:04.642Z,-1.13
2023-01-26T04:50:04.663Z,-1.12
2023-01-26T04:51:04.482Z,-1.13
2023-01-26T04:52:04.566Z,-1.18
2023-01-26T04:53:04.704Z,-1.15
2023-01-26T04:54:04.510Z,-1.18
2023-01-26T04:55:04.557Z,-1.20
2023-01-26T04:56:04.586Z,-1.18
2023-01-26T04:57:04.605Z,-1.15
2023-01-26T04:58:04.606Z,-1.13
2023-01-26T04:59:04.591Z,-1.17
2023-01-26T05:00:04.550Z,-1.13
2023-01-26T05:01:04.392Z,-1.12
2023-01-26T05:02:04.523Z,-1.15
2023-01-26T05:03:04.323Z,-1.18
2023-01-26T05:04:04.562Z,-1.20
2023-01-26T05:05:04.564Z,-1.18
2023-01-26T05:06:04.292Z,-1.17
2023-01-26T05:07:04.514Z,-1.15
2023-01-26T05:08:04.494Z,-1.18
2023-01-26T05:09:04.428Z,-1.15
2023-01-26T05:10:04.448Z,-1.17
2023-01-26T05:11:04.562Z,-1.15
2023-01-26T05:12:04.446Z,-1.20
2023-01-26T05:13:04.472Z,-1.15
2023-01-26T05:14:04.496Z,-1.13
2023-01-26T05:15:04.220Z,-1.15
2023-01-26T05:16:04.378Z,-1.13
2023-01-26T05:17:04.397Z,-1.12
2023-01-26T05:18:04.375Z,-1.15
2023-01-26T05:19:04.246Z,-1.13
2023-01-26T05:20:04.191Z,-1.12
2023-01-26T05:21:04.323Z,-1.12
2023-01-26T05:22:04.357Z,-1.09
2023-01-26T05:23:04.282Z,-1.09
2023-01-26T05:24:04.159Z,-1.05
2023-01-26T05:25:04.284Z,-1.06
2023-01-26T05:26:04.375Z,-1.06
2023-01-26T05:27:04.320Z,-1.10
2023-01-26T05:28:04.184Z,-1.10
2023-01-26T05:29:04.092Z,-1.12
2023-01-26T05:30:04.251Z,-1.10
2023-01-26T05:31:04.338Z,-1.10
2023-01-26T05:32:04.264Z,-1.10
2023-01-26T05:33:04.118Z,-1.12
2023-01-26T05:34:04.212Z,-1.10
2023-01-26T05:35:04.161Z,-1.10
2023-01-26T05:36:04.109Z,-1.09
2023-01-26T05:37:04.229Z,-1.06
2023-01-26T05:38:04.248Z,-1.05
2023-01-26T05:39:04.092Z,-1.06
2023-01-26T05:40:04.108Z,-1.06
2023-01-26T05:41:04.158Z,-1.06
2023-01-26T05:42:03.999Z,-1.06
2023-01-26T05:43:04.017Z,-1.05
2023-01-26T05:44:04.112Z,-1.06
2023-01-26T05:45:03.971Z,-1.07
2023-01-26T05:46:03.949Z,-1.10
2023-01-26T05:47:03.937Z,-1.13
2023-01-26T05:48:03.925Z,-1.15
2023-01-26T05:49:03.945Z,-1.17
2023-01-26T05:50:03.926Z,-1.20
2023-01-26T05:51:04.148Z,-1.20
2023-01-26T05:52:03.984Z,-1.17
2023-01-26T05:53:03.869Z,-1.15
2023-01-26T05:54:04.133Z,-1.12
2023-01-26T05:55:04.175Z,-1.15
2023-01-26T05:56:03.962Z,-1.12
2023-01-26T05:57:03.978Z,-1.13
2023-01-26T05:58:03.979Z,-1.10
2023-01-26T05:59:04.102Z,-1.07
2023-01-26T06:00:03.906Z,-1.10
2023-01-26T06:01:04.034Z,-1.09
2023-01-26T06:02:04.032Z,-1.07
2023-01-26T06:03:03.979Z,-1.07
2023-01-26T06:04:04.056Z,-1.06
2023-01-26T06:05:03.940Z,-1.03
2023-01-26T06:06:04.015Z,-1.02
2023-01-26T06:07:03.926Z,-1.02
2023-01-26T06:08:03.937Z,-1.00
2023-01-26T06:09:03.815Z,-1.03
2023-01-26T06:10:03.772Z,-1.06
2023-01-26T06:11:03.811Z,-1.06
2023-01-26T06:12:03.830Z,-1.05
2023-01-26T06:13:03.768Z,-1.03
2023-01-26T06:14:03.850Z,-1.02
2023-01-26T06:15:03.894Z,-1.00
2023-01-26T06:16:03.854Z,-0.99
2023-01-26T06:17:03.651Z,-1.06
2023-01-26T06:18:03.859Z,-1.02
2023-01-26T06:19:03.865Z,-0.99
2023-01-26T06:20:03.767Z,-0.99
2023-01-26T06:21:03.777Z,-0.97
2023-01-26T06:22:03.776Z,-0.97
2023-01-26T06:23:03.602Z,-0.92
2023-01-26T06:24:03.758Z,-0.97
2023-01-26T06:25:03.642Z,-0.89
2023-01-26T06:26:03.687Z,-0.94
2023-01-26T06:27:03.789Z,-0.94
2023-01-26T06:28:03.723Z,-0.94
2023-01-26T06:29:03.752Z,-0.94
2023-01-26T06:30:03.674Z,-0.92
2023-01-26T06:31:03.756Z,-0.92
2023-01-26T06:32:03.762Z,-0.92
2023-01-26T06:33:03.484Z,-0.95
2023-01-26T06:34:03.601Z,-0.97
2023-01-26T06:35:03.696Z,-0.99
2023-01-26T06:36:03.714Z,-1.02
2023-01-26T06:37:03.728Z,-1.05
2023-01-26T06:38:03.747Z,-1.03
2023-01-26T06:39:03.606Z,-1.05
2023-01-26T06:40:03.604Z,-1.02
2023-01-26T06:41:03.607Z,-1.02
2023-01-26T06:42:03.640Z,-1.06
2023-01-26T06:43:03.641Z,-1.05
2023-01-26T06:44:03.666Z,-1.06
2023-01-26T06:45:03.594Z,-1.09
2023-01-26T06:46:03.540Z,-1.07
2023-01-26T06:47:03.613Z,-1.06
2023-01-26T06:48:03.547Z,-1.05
2023-01-26T06:49:03.638Z,-1.02
2023-01-26T06:50:03.477Z,-1.03
2023-01-26T06:51:03.499Z,-1.00
2023-01-26T06:52:03.515Z,-0.95
2023-01-26T06:53:03.502Z,-0.95
2023-01-26T06:54:03.426Z,-0.94
2023-01-26T06:55:03.525Z,-0.94
2023-01-26T06:56:03.519Z,-0.91
2023-01-26T06:57:03.417Z,-0.92
2023-01-26T06:58:03.543Z,-0.92
2023-01-26T06:59:03.438Z,-0.92
2023-01-26T07:00:03.498Z,-0.92
2023-01-26T07:01:03.443Z,-0.91
2023-01-26T07:02:03.435Z,-0.87
2023-01-26T07:03:03.394Z,-0.89
2023-01-26T07:04:03.468Z,-0.89
2023-01-26T07:05:04.380Z,-0.89
2023-01-26T07:06:03.461Z,-0.87
2023-01-26T07:07:03.386Z,-0.86
2023-01-26T07:08:03.309Z,-0.87
2023-01-26T07:09:03.379Z,-0.86
2023-01-26T07:10:03.310Z,-0.89
2023-01-26T07:11:03.409Z,-0.84
2023-01-26T07:12:03.348Z,-0.86
2023-01-26T07:13:03.195Z,-0.84
2023-01-26T07:14:03.362Z,-0.84
2023-01-26T07:15:03.212Z,-0.84
2023-01-26T07:16:03.282Z,-0.81
2023-01-26T07:17:03.249Z,-0.83
2023-01-26T07:18:03.212Z,-0.84
2023-01-26T07:19:03.239Z,-0.83
2023-01-26T07:20:03.264Z,-0.83
2023-01-26T07:21:03.162Z,-0.80
2023-01-26T07:22:03.177Z,-0.80
2023-01-26T07:23:03.194Z,-0.80
2023-01-26T07:24:03.163Z,-0.77
2023-01-26T07:25:03.232Z,-0.77
2023-01-26T07:26:03.174Z,-0.75
2023-01-26T07:27:03.108Z,-0.73
2023-01-26T07:28:03.210Z,-0.72
2023-01-26T07:29:03.137Z,-0.70
2023-01-26T07:30:03.081Z,-0.70
2023-01-26T07:31:03.193Z,-0.68
2023-01-26T07:32:03.133Z,-0.68
2023-01-26T07:33:03.101Z,-0.63
2023-01-26T07:34:03.110Z,-0.63
2023-01-26T07:35:03.119Z,-0.59
2023-01-26T07:36:03.123Z,-0.62
2023-01-26T07:37:03.123Z,-0.60
2023-01-26T07:38:03.039Z,-0.59
2023-01-26T07:39:03.057Z,-0.59
2023-01-26T07:40:03.042Z,-0.59
2023-01-26T07:41:03.050Z,-0.60
2023-01-26T07:42:03.136Z,-0.55
2023-01-26T07:43:03.066Z,-0.54
2023-01-26T07:44:03.099Z,-0.52
2023-01-26T07:45:02.991Z,-0.52
2023-01-26T07:46:03.010Z,-0.51
2023-01-26T07:47:03.017Z,-0.51
2023-01-26T07:48:02.974Z,-0.52
2023-01-26T07:49:03.051Z,-0.52
2023-01-26T07:50:02.998Z,-0.51
2023-01-26T07:51:02.978Z,-0.54
2023-01-26T07:52:04.740Z,-0.54
2023-01-26T07:53:02.909Z,-0.55
2023-01-26T07:54:02.914Z,-0.51
2023-01-26T07:55:02.987Z,-0.51
2023-01-26T07:56:02.904Z,-0.50
2023-01-26T07:57:02.898Z,-0.47
2023-01-26T07:58:02.872Z,-0.42
2023-01-26T07:59:03.914Z,-0.42
2023-01-26T08:00:02.919Z,-0.39
2023-01-26T08:01:02.837Z,-0.39
2023-01-26T08:02:02.989Z,-0.39
2023-01-26T08:03:02.933Z,-0.42
2023-01-26T08:04:02.798Z,-0.39
2023-01-26T08:05:02.897Z,-0.39
2023-01-26T08:06:02.836Z,-0.36
2023-01-26T08:07:02.784Z,-0.36
2023-01-26T08:08:02.773Z,-0.29
2023-01-26T08:09:02.866Z,-0.30
2023-01-26T08:10:02.809Z,-0.27
2023-01-26T08:11:02.825Z,-0.26
2023-01-26T08:12:02.821Z,-0.19
2023-01-26T08:13:02.712Z,-0.16
2023-01-26T08:14:02.652Z,-0.18
2023-01-26T08:15:02.651Z,-0.19
2023-01-26T08:16:02.837Z,-0.16
2023-01-26T08:17:02.822Z,-0.15
2023-01-26T08:18:02.820Z,-0.13
2023-01-26T08:19:02.835Z,-0.12
2023-01-26T08:20:02.658Z,-0.11
2023-01-26T08:21:02.822Z,-0.09
2023-01-26T08:22:02.677Z,-0.09
2023-01-26T08:23:02.668Z,-0.06
2023-01-26T08:24:02.692Z,-0.06
2023-01-26T08:25:02.655Z,-0.06
2023-01-26T08:26:02.700Z,-0.05
2023-01-26T08:27:02.649Z,-0.01
2023-01-26T08:28:02.639Z,-0.05
2023-01-26T08:29:02.626Z,-0.05
2023-01-26T08:30:02.624Z,-0.05
2023-01-26T08:31:02.655Z,-0.04
2023-01-26T08:32:02.526Z,-0.04
2023-01-26T08:33:02.658Z,-0.04
2023-01-26T08:34:02.611Z,-0.05
2023-01-26T08:35:02.473Z,-0.05
2023-01-26T08:36:02.481Z,-0.05
2023-01-26T08:37:02.482Z,-0.04
2023-01-26T08:38:02.500Z,-0.04
2023-01-26T08:39:02.650Z,-0.01
2023-01-26T08:40:02.495Z,-0.04
2023-01-26T08:41:02.496Z,-0.06
2023-01-26T08:42:02.473Z,-0.06
2023-01-26T08:43:02.710Z,-0.04
2023-01-26T08:44:02.463Z,-0.01
2023-01-26T08:45:02.382Z,-0.01
2023-01-26T08:46:02.471Z,-0.01
2023-01-26T08:47:02.408Z,0.02
2023-01-26T08:48:02.464Z,0.05
2023-01-26T08:49:02.378Z,0.06
2023-01-26T08:50:02.403Z,0.06
2023-01-26T08:51:02.330Z,0.06
2023-01-26T08:52:02.347Z,0.09
2023-01-26T08:53:02.403Z,0.07
2023-01-26T08:54:02.444Z,0.12
2023-01-26T08:55:02.355Z,0.10
2023-01-26T08:56:02.344Z,0.12
2023-01-26T08:57:02.328Z,0.13
2023-01-26T08:58:02.331Z,0.12
2023-01-26T08:59:02.414Z,0.13
2023-01-26T09:00:02.395Z,0.13
2023-01-26T09:01:02.348Z,0.15
2023-01-26T09:02:02.394Z,0.18
2023-01-26T09:03:02.400Z,0.16
2023-01-26T09:04:02.379Z,0.18
2023-01-26T09:05:02.273Z,0.21
2023-01-26T09:06:02.240Z,0.23
2023-01-26T09:07:02.280Z,0.23
2023-01-26T09:08:02.222Z,0.20
2023-01-26T09:09:02.315Z,0.21
2023-01-26T09:10:02.176Z,0.23
2023-01-26T09:11:02.283Z,0.24
2023-01-26T09:12:02.170Z,0.24
2023-01-26T09:13:02.251Z,0.25
2023-01-26T09:14:02.169Z,0.28
2023-01-26T09:15:02.241Z,0.31
2023-01-26T09:16:02.176Z,0.33
2023-01-26T09:17:02.184Z,0.36
2023-01-26T09:18:02.161Z,0.33
2023-01-26T09:19:02.014Z,0.39
2023-01-26T09:20:02.011Z,0.41
2023-01-26T09:21:02.016Z,0.41
2023-01-26T09:22:02.023Z,0.42
2023-01-26T09:23:02.220Z,0.45
2023-01-26T09:24:01.996Z,0.48
2023-01-26T09:25:01.993Z,0.48
2023-01-26T09:26:02.137Z,0.51
2023-01-26T09:27:01.977Z,0.52
2023-01-26T09:28:02.931Z,0.52
2023-01-26T09:29:01.948Z,0.53
2023-01-26T09:30:02.136Z,0.53
2023-01-26T09:31:01.991Z,0.58
2023-01-26T09:32:01.919Z,0.53
2023-01-26T09:33:02.047Z,0.53
2023-01-26T09:34:01.963Z,0.49
2023-01-26T09:35:01.883Z,0.46
2023-01-26T09:36:01.884Z,0.46
2023-01-26T09:37:02.029Z,0.43
2023-01-26T09:38:01.860Z,0.49
2023-01-26T09:39:01.845Z,0.48
2023-01-26T09:40:01.830Z,0.49
2023-01-26T09:41:01.833Z,0.53
2023-01-26T09:42:01.963Z,0.58
2023-01-26T09:43:01.854Z,0.61
2023-01-26T09:44:01.880Z,0.64
2023-01-26T09:45:01.766Z,0.65
2023-01-26T09:46:01.825Z,0.68
2023-01-26T09:47:01.887Z,0.72
2023-01-26T09:48:01.731Z,0.76
2023-01-26T09:49:01.735Z,0.76
2023-01-26T09:50:01.723Z,0.79
2023-01-26T09:51:01.862Z,0.76
2023-01-26T09:52:01.850Z,0.75
2023-01-26T09:53:01.706Z,0.78
2023-01-26T09:54:01.715Z,0.76
2023-01-26T09:55:01.855Z,0.82
2023-01-26T09:56:01.698Z,0.85
2023-01-26T09:57:01.704Z,0.86
2023-01-26T09:58:01.730Z,0.88
2023-01-26T09:59:01.734Z,0.94
2023-01-26T10:00:01.722Z,0.94
2023-01-26T10:01:01.631Z,0.98
2023-01-26T10:02:01.779Z,0.96
2023-01-26T10:03:01.792Z,0.98
2023-01-26T10:04:01.642Z,1.04
2023-01-26T10:05:01.600Z,1.01
2023-01-26T10:06:01.619Z,1.01
2023-01-26T10:07:01.643Z,1.04
2023-01-26T10:08:01.629Z,1.06
2023-01-26T10:09:01.564Z,1.06
2023-01-26T10:10:01.574Z,1.14
2023-01-26T10:11:01.577Z,1.18
2023-01-26T10:12:01.591Z,1.19
2023-01-26T10:13:01.581Z,1.19
2023-01-26T10:14:01.659Z,1.18
2023-01-26T10:15:01.575Z,1.16
2023-01-26T10:16:01.572Z,1.19
2023-01-26T10:17:01.543Z,1.18
2023-01-26T10:18:01.518Z,1.19
2023-01-26T10:19:01.602Z,1.18
2023-01-26T10:20:01.602Z,1.18
2023-01-26T10:21:01.544Z,1.18
2023-01-26T10:22:01.509Z,1.21
2023-01-26T10:23:01.278Z,1.22
2023-01-26T10:24:01.585Z,1.24
2023-01-26T10:25:01.527Z,1.22
2023-01-26T10:26:01.432Z,1.18
2023-01-26T10:27:01.403Z,1.16
2023-01-26T10:28:01.538Z,1.15
2023-01-26T10:29:01.437Z,1.19
2023-01-26T10:30:01.497Z,1.18
2023-01-26T10:31:01.522Z,1.15
2023-01-26T10:32:01.431Z,1.10
2023-01-26T10:33:01.353Z,1.07
2023-01-26T10:34:01.359Z,1.08
2023-01-26T10:35:01.452Z,1.10
2023-01-26T10:36:01.450Z,1.10
2023-01-26T10:37:01.371Z,1.10
2023-01-26T10:38:01.303Z,1.14
2023-01-26T10:39:01.286Z,1.14
2023-01-26T10:40:01.362Z,1.19
2023-01-26T10:41:01.301Z,1.22
2023-01-26T10:42:01.263Z,1.21
2023-01-26T10:43:01.348Z,1.25
2023-01-26T10:44:01.268Z,1.28
2023-01-26T10:45:01.237Z,1.33
2023-01-26T10:46:01.281Z,1.39
2023-01-26T10:47:01.208Z,1.43
2023-01-26T10:48:01.284Z,1.46
2023-01-26T10:49:01.189Z,1.51
2023-01-26T10:50:01.174Z,1.52
2023-01-26T10:51:02.404Z,1.55
2023-01-26T10:52:01.210Z,1.60
2023-01-26T10:53:01.190Z,1.62
2023-01-26T10:54:01.254Z,1.62
2023-01-26T10:55:01.145Z,1.65
2023-01-26T10:56:01.096Z,1.71
2023-01-26T10:57:01.165Z,1.73
2023-01-26T10:58:01.226Z,1.79
2023-01-26T10:59:01.178Z,1.82
2023-01-26T11:00:01.082Z,1.87
2023-01-26T11:01:01.110Z,1.87
2023-01-26T11:02:01.088Z,1.87
2023-01-26T11:03:01.087Z,1.87
2023-01-26T11:04:01.120Z,1.89
2023-01-26T11:05:01.090Z,1.91
2023-01-26T11:06:01.051Z,1.93
2023-01-26T11:07:01.095Z,1.94
2023-01-26T11:08:01.007Z,2.02
2023-01-26T11:09:01.079Z,2.04
2023-01-26T11:10:00.996Z,2.12
2023-01-26T11:11:01.006Z,2.17
2023-01-26T11:12:01.032Z,2.23
2023-01-26T11:13:01.011Z,2.30
2023-01-26T11:14:01.078Z,2.27
2023-01-26T11:15:01.012Z,2.28
2023-01-26T11:16:01.008Z,2.22
2023-01-26T11:17:01.047Z,2.23
2023-01-26T11:18:00.834Z,2.28
2023-01-26T11:19:00.878Z,2.33
2023-01-26T11:20:01.014Z,2.35
2023-01-26T11:21:00.868Z,2.35
2023-01-26T11:22:00.863Z,2.31
2023-01-26T11:23:00.854Z,2.37
2023-01-26T11:24:00.934Z,2.41
2023-01-26T11:25:00.835Z,2.40
2023-01-26T11:26:00.836Z,2.40
2023-01-26T11:27:00.847Z,2.48
2023-01-26T11:28:00.842Z,2.45
2023-01-26T11:29:00.809Z,2.48
2023-01-26T11:30:00.837Z,2.49
2023-01-26T11:31:00.938Z,2.48
2023-01-26T11:32:00.841Z,2.41
2023-01-26T11:33:00.753Z,2.38
2023-01-26T11:34:00.766Z,2.44
2023-01-26T11:35:00.784Z,2.44
2023-01-26T11:36:00.785Z,2.41
2023-01-26T11:37:00.717Z,2.45
2023-01-26T11:38:00.792Z,2.45
2023-01-26T11:39:00.718Z,2.46
2023-01-26T11:40:00.799Z,2.46
2023-01-26T11:41:00.818Z,2.49
2023-01-26T11:42:00.792Z,2.51
2023-01-26T11:43:00.700Z,2.49
2023-01-26T11:44:00.700Z,2.48
2023-01-26T11:45:00.606Z,2.45
2023-01-26T11:46:00.727Z,2.44
2023-01-26T11:47:00.672Z,2.41
2023-01-26T11:48:00.882Z,2.34
2023-01-26T11:49:00.755Z,2.33
2023-01-26T11:50:00.583Z,2.30
2023-01-26T11:51:00.582Z,2.33
2023-01-26T11:52:00.580Z,2.34
2023-01-26T11:53:00.648Z,2.34
2023-01-26T11:54:00.621Z,2.34
2023-01-26T11:55:00.513Z,2.37
2023-01-26T11:56:00.482Z,2.35
2023-01-26T11:57:00.557Z,2.35
2023-01-26T11:58:00.527Z,2.34
2023-01-26T11:59:00.607Z,2.31
2023-01-26T12:00:00.508Z,2.30
2023-01-26T12:01:00.452Z,2.28
2023-01-26T12:02:00.544Z,2.26
2023-01-26T12:03:00.497Z,2.27
2023-01-26T12:04:00.602Z,2.20
2023-01-26T12:05:00.554Z,2.19
2023-01-26T12:06:00.529Z,2.20
2023-01-26T12:07:00.489Z,2.22
2023-01-26T12:08:00.453Z,2.19
2023-01-26T12:09:00.471Z,2.13
2023-01-26T12:10:00.407Z,2.12
2023-01-26T12:11:00.419Z,2.08
2023-01-26T12:12:00.524Z,1.99
2023-01-26T12:13:00.437Z,1.97
2023-01-26T12:14:00.358Z,1.94
2023-01-26T12:15:00.358Z,1.94
2023-01-26T12:16:00.448Z,1.99
2023-01-26T12:17:16.772Z,1.97
2023-01-26T12:18:00.328Z,1.94
2023-01-26T12:19:10.763Z,1.93
2023-01-26T12:20:00.446Z,1.94
2023-01-26T12:21:00.367Z,1.93
2023-01-26T12:22:00.274Z,1.93
2023-01-26T12:23:00.341Z,1.93
2023-01-26T12:24:00.342Z,1.91
2023-01-26T12:26:00.397Z,1.94
2023-01-26T12:27:00.219Z,1.94
2023-01-26T12:28:00.224Z,1.91
2023-01-26T12:29:00.236Z,1.90
2023-01-26T12:30:00.253Z,1.85
2023-01-26T12:31:00.345Z,1.83
2023-01-26T12:32:00.175Z,1.82
2023-01-26T12:33:00.209Z,1.80
2023-01-26T12:34:00.165Z,1.79
2023-01-26T12:35:00.132Z,1.80
2023-01-26T12:36:00.176Z,1.78
2023-01-26T12:37:00.183Z,1.76
2023-01-26T12:38:16.037Z,1.75
2023-01-26T12:39:00.125Z,1.75
2023-01-26T12:40:00.161Z,1.73
2023-01-26T12:41:00.155Z,1.73
2023-01-26T12:42:00.105Z,1.72
2023-01-26T12:43:00.162Z,1.69
2023-01-26T12:44:00.089Z,1.64
2023-01-26T12:45:00.067Z,1.64
2023-01-26T12:46:00.894Z,1.58
2023-01-26T12:47:00.064Z,1.58
2023-01-26T12:48:00.130Z,1.54
2023-01-26T12:49:00.025Z,1.54
2023-01-26T12:50:00.053Z,1.51
2023-01-26T12:51:00.023Z,1.51
2023-01-26T12:52:00.074Z,1.44
2023-01-26T12:53:00.040Z,1.47
2023-01-26T12:54:00.096Z,1.46
2023-01-26T12:55:00.016Z,1.43
2023-01-26T12:55:59.972Z,1.39
2023-01-26T12:56:59.943Z,1.37
2023-01-26T12:57:59.927Z,1.34
2023-01-26T12:58:59.990Z,1.36
2023-01-26T12:59:59.892Z,1.34
2023-01-26T13:00:59.999Z,1.34